sensor_id;sensor_type;location;lat;lon;timestamp;temperature;humidity
50586;DHT22;36542;51.700;8.846;2023-03-07T00:00:09;2.10;99.90
50586;DHT22;36542;51.700;8.846;2023-03-07T00:02:37;2.10;99.90
50586;DHT22;36542;51.700;8.846;2023-03-07T00:05:02;2.10;99.90
50586;DHT22;36542;51.700;8.846;2023-03-07T00:07:28;2.10;99.90
50586;DHT22;36542;51.700;8.846;2023-03-07T00:09:54;2.10;99.90
50586;DHT22;36542;51.700;8.846;2023-03-07T00:12:19;2.10;99.90
50586;DHT22;36542;51.700;8.846;2023-03-07T00:14:46;2.10;99.90
50586;DHT22;36542;51.700;8.846;2023-03-07T00:17:11;2.10;99.90
50586;DHT22;36542;51.700;8.846;2023-03-07T00:19:37;2.10;99.90
50586;DHT22;36542;51.700;8.846;2023-03-07T00:22:03;2.10;99.90
50586;DHT22;36542;51.700;8.846;2023-03-07T00:24:28;2.10;99.90
50586;DHT22;36542;51.700;8.846;2023-03-07T00:26:54;2.10;99.90
50586;DHT22;36542;51.700;8.846;2023-03-07T00:29:19;2.10;99.90
50586;DHT22;36542;51.700;8.846;2023-03-07T00:31:45;2.10;99.90
50586;DHT22;36542;51.700;8.846;2023-03-07T00:34:10;2.10;99.90
50586;DHT22;36542;51.700;8.846;2023-03-07T00:36:36;2.10;99.90
50586;DHT22;36542;51.700;8.846;2023-03-07T00:39:01;2.10;99.90
50586;DHT22;36542;51.700;8.846;2023-03-07T00:41:27;2.10;99.90
50586;DHT22;36542;51.700;8.846;2023-03-07T00:43:54;2.10;99.90
50586;DHT22;36542;51.700;8.846;2023-03-07T00:46:21;2.00;99.90
50586;DHT22;36542;51.700;8.846;2023-03-07T00:48:47;2.00;99.90
50586;DHT22;36542;51.700;8.846;2023-03-07T00:51:14;2.00;99.90
50586;DHT22;36542;51.700;8.846;2023-03-07T00:53:41;2.00;99.90
50586;DHT22;36542;51.700;8.846;2023-03-07T00:56:12;2.00;99.90
50586;DHT22;36542;51.700;8.846;2023-03-07T00:58:38;2.00;99.90
50586;DHT22;36542;51.700;8.846;2023-03-07T01:01:05;1.90;99.90
50586;DHT22;36542;51.700;8.846;2023-03-07T01:03:32;2.00;99.90
50586;DHT22;36542;51.700;8.846;2023-03-07T01:06:01;2.00;99.90
50586;DHT22;36542;51.700;8.846;2023-03-07T01:08:27;2.00;99.90
50586;DHT22;36542;51.700;8.846;2023-03-07T01:11:00;2.00;99.90
50586;DHT22;36542;51.700;8.846;2023-03-07T01:13:27;2.00;99.90
50586;DHT22;36542;51.700;8.846;2023-03-07T01:15:53;2.00;99.90
50586;DHT22;36542;51.700;8.846;2023-03-07T01:18:18;2.10;99.90
50586;DHT22;36542;51.700;8.846;2023-03-07T01:20:44;2.10;99.90
50586;DHT22;36542;51.700;8.846;2023-03-07T01:23:09;2.10;99.90
50586;DHT22;36542;51.700;8.846;2023-03-07T01:25:42;2.20;99.90
50586;DHT22;36542;51.700;8.846;2023-03-07T01:28:11;2.20;99.90
50586;DHT22;36542;51.700;8.846;2023-03-07T01:30:37;2.20;99.90
50586;DHT22;36542;51.700;8.846;2023-03-07T01:33:03;2.20;99.90
50586;DHT22;36542;51.700;8.846;2023-03-07T01:35:29;2.20;99.90
50586;DHT22;36542;51.700;8.846;2023-03-07T01:38:00;2.20;99.90
50586;DHT22;36542;51.700;8.846;2023-03-07T01:40:25;2.20;99.90
50586;DHT22;36542;51.700;8.846;2023-03-07T01:42:51;2.20;99.90
50586;DHT22;36542;51.700;8.846;2023-03-07T01:47:58;2.30;99.90
50586;DHT22;36542;51.700;8.846;2023-03-07T01:50:23;2.30;99.90
50586;DHT22;36542;51.700;8.846;2023-03-07T01:52:56;2.30;99.90
50586;DHT22;36542;51.700;8.846;2023-03-07T01:55:27;2.40;99.90
50586;DHT22;36542;51.700;8.846;2023-03-07T01:57:54;2.40;99.90
50586;DHT22;36542;51.700;8.846;2023-03-07T02:00:22;2.40;99.90
50586;DHT22;36542;51.700;8.846;2023-03-07T02:03:01;2.40;99.90
50586;DHT22;36542;51.700;8.846;2023-03-07T02:05:33;2.40;99.90
50586;DHT22;36542;51.700;8.846;2023-03-07T02:08:02;2.40;99.90
50586;DHT22;36542;51.700;8.846;2023-03-07T02:10:29;2.50;99.90
50586;DHT22;36542;51.700;8.846;2023-03-07T02:12:55;2.50;99.90
50586;DHT22;36542;51.700;8.846;2023-03-07T02:15:21;2.50;99.90
50586;DHT22;36542;51.700;8.846;2023-03-07T02:17:47;2.50;99.90
50586;DHT22;36542;51.700;8.846;2023-03-07T02:22:53;2.40;99.90
50586;DHT22;36542;51.700;8.846;2023-03-07T02:28:04;2.40;99.90
50586;DHT22;36542;51.700;8.846;2023-03-07T02:30:31;2.50;99.90
50586;DHT22;36542;51.700;8.846;2023-03-07T02:32:56;2.50;99.90
50586;DHT22;36542;51.700;8.846;2023-03-07T02:35:24;2.50;99.90
50586;DHT22;36542;51.700;8.846;2023-03-07T02:37:59;2.50;99.90
50586;DHT22;36542;51.700;8.846;2023-03-07T02:40:28;2.60;99.90
50586;DHT22;36542;51.700;8.846;2023-03-07T02:42:56;2.60;99.90
50586;DHT22;36542;51.700;8.846;2023-03-07T02:45:24;2.70;99.90
50586;DHT22;36542;51.700;8.846;2023-03-07T02:47:50;2.70;99.90
50586;DHT22;36542;51.700;8.846;2023-03-07T02:50:16;2.70;99.90
50586;DHT22;36542;51.700;8.846;2023-03-07T02:52:41;2.80;99.90
50586;DHT22;36542;51.700;8.846;2023-03-07T02:55:07;2.80;99.90
50586;DHT22;36542;51.700;8.846;2023-03-07T02:57:33;2.80;99.90
50586;DHT22;36542;51.700;8.846;2023-03-07T03:00:00;2.80;99.90
50586;DHT22;36542;51.700;8.846;2023-03-07T03:02:26;2.80;99.90
50586;DHT22;36542;51.700;8.846;2023-03-07T03:04:51;2.80;99.90
50586;DHT22;36542;51.700;8.846;2023-03-07T03:07:17;2.90;99.90
50586;DHT22;36542;51.700;8.846;2023-03-07T03:09:42;2.90;99.90
50586;DHT22;36542;51.700;8.846;2023-03-07T03:12:08;2.90;99.90
50586;DHT22;36542;51.700;8.846;2023-03-07T03:14:33;2.90;99.90
50586;DHT22;36542;51.700;8.846;2023-03-07T03:16:59;2.90;99.90
50586;DHT22;36542;51.700;8.846;2023-03-07T03:19:25;2.90;99.90
50586;DHT22;36542;51.700;8.846;2023-03-07T03:21:50;2.90;99.90
50586;DHT22;36542;51.700;8.846;2023-03-07T03:24:16;3.00;99.90
50586;DHT22;36542;51.700;8.846;2023-03-07T03:26:41;3.00;99.90
50586;DHT22;36542;51.700;8.846;2023-03-07T03:29:07;3.00;99.90
50586;DHT22;36542;51.700;8.846;2023-03-07T03:31:33;3.00;99.90
50586;DHT22;36542;51.700;8.846;2023-03-07T03:33:59;3.00;99.90
50586;DHT22;36542;51.700;8.846;2023-03-07T03:36:25;3.00;99.90
50586;DHT22;36542;51.700;8.846;2023-03-07T03:38:52;3.00;99.90
50586;DHT22;36542;51.700;8.846;2023-03-07T03:41:18;3.00;99.90
50586;DHT22;36542;51.700;8.846;2023-03-07T03:43:43;3.00;99.90
50586;DHT22;36542;51.700;8.846;2023-03-07T03:46:09;3.10;99.90
50586;DHT22;36542;51.700;8.846;2023-03-07T03:48:34;3.10;99.90
50586;DHT22;36542;51.700;8.846;2023-03-07T03:51:20;3.10;99.90
50586;DHT22;36542;51.700;8.846;2023-03-07T03:53:47;3.10;99.90
50586;DHT22;36542;51.700;8.846;2023-03-07T03:56:17;3.10;99.90
50586;DHT22;36542;51.700;8.846;2023-03-07T03:58:45;3.10;99.90
50586;DHT22;36542;51.700;8.846;2023-03-07T04:01:11;3.10;99.90
50586;DHT22;36542;51.700;8.846;2023-03-07T04:03:42;3.10;99.90
50586;DHT22;36542;51.700;8.846;2023-03-07T04:06:10;3.10;99.90
50586;DHT22;36542;51.700;8.846;2023-03-07T04:08:36;3.10;99.90
50586;DHT22;36542;51.700;8.846;2023-03-07T04:11:03;3.10;99.90
50586;DHT22;36542;51.700;8.846;2023-03-07T04:13:30;3.10;99.90
50586;DHT22;36542;51.700;8.846;2023-03-07T04:15:55;3.10;99.90
50586;DHT22;36542;51.700;8.846;2023-03-07T04:18:21;3.10;99.90
50586;DHT22;36542;51.700;8.846;2023-03-07T04:20:48;3.10;99.90
50586;DHT22;36542;51.700;8.846;2023-03-07T04:23:14;3.10;99.90
50586;DHT22;36542;51.700;8.846;2023-03-07T04:25:40;3.10;99.90
50586;DHT22;36542;51.700;8.846;2023-03-07T04:28:10;3.10;99.90
50586;DHT22;36542;51.700;8.846;2023-03-07T04:30:36;3.10;99.90
50586;DHT22;36542;51.700;8.846;2023-03-07T04:33:01;3.00;99.90
50586;DHT22;36542;51.700;8.846;2023-03-07T04:35:27;3.00;99.90
50586;DHT22;36542;51.700;8.846;2023-03-07T04:37:52;3.00;99.90
50586;DHT22;36542;51.700;8.846;2023-03-07T04:40:18;3.00;99.90
50586;DHT22;36542;51.700;8.846;2023-03-07T04:42:43;3.00;99.90
50586;DHT22;36542;51.700;8.846;2023-03-07T04:45:09;3.00;99.90
50586;DHT22;36542;51.700;8.846;2023-03-07T04:47:34;3.00;99.90
50586;DHT22;36542;51.700;8.846;2023-03-07T04:50:00;2.90;99.90
50586;DHT22;36542;51.700;8.846;2023-03-07T04:52:25;2.90;99.90
50586;DHT22;36542;51.700;8.846;2023-03-07T04:54:51;2.90;99.90
50586;DHT22;36542;51.700;8.846;2023-03-07T04:57:16;2.90;99.90
50586;DHT22;36542;51.700;8.846;2023-03-07T04:59:42;2.90;99.90
50586;DHT22;36542;51.700;8.846;2023-03-07T05:02:08;2.90;99.90
50586;DHT22;36542;51.700;8.846;2023-03-07T05:04:36;2.80;99.90
50586;DHT22;36542;51.700;8.846;2023-03-07T05:07:02;2.90;99.90
50586;DHT22;36542;51.700;8.846;2023-03-07T05:09:28;2.90;99.90
50586;DHT22;36542;51.700;8.846;2023-03-07T05:11:53;2.90;99.90
50586;DHT22;36542;51.700;8.846;2023-03-07T05:14:19;2.80;99.90
50586;DHT22;36542;51.700;8.846;2023-03-07T05:16:44;2.90;99.90
50586;DHT22;36542;51.700;8.846;2023-03-07T05:19:10;2.90;99.90
50586;DHT22;36542;51.700;8.846;2023-03-07T05:21:37;2.80;99.90
50586;DHT22;36542;51.700;8.846;2023-03-07T05:24:05;2.80;99.90
50586;DHT22;36542;51.700;8.846;2023-03-07T05:26:31;2.80;99.90
50586;DHT22;36542;51.700;8.846;2023-03-07T05:28:56;2.80;99.90
50586;DHT22;36542;51.700;8.846;2023-03-07T05:31:22;2.80;99.90
50586;DHT22;36542;51.700;8.846;2023-03-07T05:33:47;2.80;99.90
50586;DHT22;36542;51.700;8.846;2023-03-07T05:36:13;2.80;99.90
50586;DHT22;36542;51.700;8.846;2023-03-07T05:38:38;2.80;99.90
50586;DHT22;36542;51.700;8.846;2023-03-07T05:41:04;2.80;99.90
50586;DHT22;36542;51.700;8.846;2023-03-07T05:43:29;2.80;99.90
50586;DHT22;36542;51.700;8.846;2023-03-07T05:45:55;2.70;99.90
50586;DHT22;36542;51.700;8.846;2023-03-07T05:48:20;2.70;99.90
50586;DHT22;36542;51.700;8.846;2023-03-07T05:50:46;2.70;99.90
50586;DHT22;36542;51.700;8.846;2023-03-07T05:53:11;2.60;99.90
50586;DHT22;36542;51.700;8.846;2023-03-07T05:55:37;2.60;99.90
50586;DHT22;36542;51.700;8.846;2023-03-07T05:58:02;2.60;99.90
50586;DHT22;36542;51.700;8.846;2023-03-07T06:00:28;2.60;99.90
50586;DHT22;36542;51.700;8.846;2023-03-07T06:02:53;2.60;99.90
50586;DHT22;36542;51.700;8.846;2023-03-07T06:05:19;2.60;99.90
50586;DHT22;36542;51.700;8.846;2023-03-07T06:07:44;2.60;99.90
50586;DHT22;36542;51.700;8.846;2023-03-07T06:10:11;2.60;99.90
50586;DHT22;36542;51.700;8.846;2023-03-07T06:12:37;2.60;99.90
50586;DHT22;36542;51.700;8.846;2023-03-07T06:15:02;2.60;99.90
50586;DHT22;36542;51.700;8.846;2023-03-07T06:17:28;2.60;99.90
50586;DHT22;36542;51.700;8.846;2023-03-07T06:19:54;2.60;99.90
50586;DHT22;36542;51.700;8.846;2023-03-07T06:22:19;2.60;99.90
50586;DHT22;36542;51.700;8.846;2023-03-07T06:24:45;2.70;99.90
50586;DHT22;36542;51.700;8.846;2023-03-07T06:27:10;2.70;99.90
50586;DHT22;36542;51.700;8.846;2023-03-07T06:29:36;2.70;99.90
50586;DHT22;36542;51.700;8.846;2023-03-07T06:32:02;2.70;99.90
50586;DHT22;36542;51.700;8.846;2023-03-07T06:34:27;2.70;99.90
50586;DHT22;36542;51.700;8.846;2023-03-07T06:36:53;2.70;99.90
50586;DHT22;36542;51.700;8.846;2023-03-07T06:39:19;2.70;99.90
50586;DHT22;36542;51.700;8.846;2023-03-07T06:41:49;2.70;99.90
50586;DHT22;36542;51.700;8.846;2023-03-07T06:44:16;2.70;99.90
50586;DHT22;36542;51.700;8.846;2023-03-07T06:46:42;2.70;99.90
50586;DHT22;36542;51.700;8.846;2023-03-07T06:49:08;2.70;99.90
50586;DHT22;36542;51.700;8.846;2023-03-07T06:51:34;2.70;99.90
50586;DHT22;36542;51.700;8.846;2023-03-07T06:53:59;2.70;99.90
50586;DHT22;36542;51.700;8.846;2023-03-07T06:56:25;2.70;99.90
50586;DHT22;36542;51.700;8.846;2023-03-07T06:58:51;2.70;99.90
50586;DHT22;36542;51.700;8.846;2023-03-07T07:01:18;2.80;99.90
50586;DHT22;36542;51.700;8.846;2023-03-07T07:03:44;2.80;99.90
50586;DHT22;36542;51.700;8.846;2023-03-07T07:06:10;2.80;99.90
50586;DHT22;36542;51.700;8.846;2023-03-07T07:08:35;2.80;99.90
50586;DHT22;36542;51.700;8.846;2023-03-07T07:11:01;2.80;99.90
50586;DHT22;36542;51.700;8.846;2023-03-07T07:13:26;2.80;99.90
50586;DHT22;36542;51.700;8.846;2023-03-07T07:15:52;2.80;99.90
50586;DHT22;36542;51.700;8.846;2023-03-07T07:18:17;2.80;99.90
50586;DHT22;36542;51.700;8.846;2023-03-07T07:20:43;2.90;99.90
50586;DHT22;36542;51.700;8.846;2023-03-07T07:23:09;2.90;99.90
50586;DHT22;36542;51.700;8.846;2023-03-07T07:25:34;2.90;99.90
50586;DHT22;36542;51.700;8.846;2023-03-07T07:28:01;2.90;99.90
50586;DHT22;36542;51.700;8.846;2023-03-07T07:30:27;2.90;99.90
50586;DHT22;36542;51.700;8.846;2023-03-07T07:32:52;2.90;99.90
50586;DHT22;36542;51.700;8.846;2023-03-07T07:35:18;3.00;99.90
50586;DHT22;36542;51.700;8.846;2023-03-07T07:37:43;3.00;99.90
50586;DHT22;36542;51.700;8.846;2023-03-07T07:40:09;3.00;99.90
50586;DHT22;36542;51.700;8.846;2023-03-07T07:42:35;3.00;99.90
50586;DHT22;36542;51.700;8.846;2023-03-07T07:45:00;3.00;99.90
50586;DHT22;36542;51.700;8.846;2023-03-07T07:47:26;3.00;99.90
50586;DHT22;36542;51.700;8.846;2023-03-07T07:49:51;3.00;99.90
50586;DHT22;36542;51.700;8.846;2023-03-07T07:52:17;3.00;99.90
50586;DHT22;36542;51.700;8.846;2023-03-07T07:54:42;3.00;99.90
50586;DHT22;36542;51.700;8.846;2023-03-07T07:57:08;3.00;99.90
50586;DHT22;36542;51.700;8.846;2023-03-07T07:59:34;3.00;99.90
50586;DHT22;36542;51.700;8.846;2023-03-07T08:02:00;3.00;99.90
50586;DHT22;36542;51.700;8.846;2023-03-07T08:04:26;3.00;99.90
50586;DHT22;36542;51.700;8.846;2023-03-07T08:06:51;3.00;99.90
50586;DHT22;36542;51.700;8.846;2023-03-07T08:09:17;3.00;99.90
50586;DHT22;36542;51.700;8.846;2023-03-07T08:11:43;3.00;99.90
50586;DHT22;36542;51.700;8.846;2023-03-07T08:14:08;3.00;99.90
50586;DHT22;36542;51.700;8.846;2023-03-07T08:16:34;3.00;99.90
50586;DHT22;36542;51.700;8.846;2023-03-07T08:19:00;3.00;99.90
50586;DHT22;36542;51.700;8.846;2023-03-07T08:21:26;3.10;99.90
50586;DHT22;36542;51.700;8.846;2023-03-07T08:23:53;3.00;99.90
50586;DHT22;36542;51.700;8.846;2023-03-07T08:26:19;3.00;99.90
50586;DHT22;36542;51.700;8.846;2023-03-07T08:28:45;3.10;99.90
50586;DHT22;36542;51.700;8.846;2023-03-07T08:31:16;3.10;99.90
50586;DHT22;36542;51.700;8.846;2023-03-07T08:33:42;3.10;99.90
50586;DHT22;36542;51.700;8.846;2023-03-07T08:36:08;3.10;99.90
50586;DHT22;36542;51.700;8.846;2023-03-07T08:38:34;3.10;99.90
50586;DHT22;36542;51.700;8.846;2023-03-07T08:41:00;3.10;99.90
50586;DHT22;36542;51.700;8.846;2023-03-07T08:43:27;3.10;99.90
50586;DHT22;36542;51.700;8.846;2023-03-07T08:45:53;3.00;99.90
50586;DHT22;36542;51.700;8.846;2023-03-07T08:48:19;3.00;99.90
50586;DHT22;36542;51.700;8.846;2023-03-07T08:50:45;2.90;99.90
50586;DHT22;36542;51.700;8.846;2023-03-07T08:53:12;2.80;99.90
50586;DHT22;36542;51.700;8.846;2023-03-07T08:55:38;2.50;99.90
50586;DHT22;36542;51.700;8.846;2023-03-07T08:58:03;2.30;99.90
50586;DHT22;36542;51.700;8.846;2023-03-07T09:00:29;2.10;99.90
50586;DHT22;36542;51.700;8.846;2023-03-07T09:02:54;2.00;99.90
50586;DHT22;36542;51.700;8.846;2023-03-07T09:05:22;2.00;99.90
50586;DHT22;36542;51.700;8.846;2023-03-07T09:07:48;1.80;99.90
50586;DHT22;36542;51.700;8.846;2023-03-07T09:10:13;1.60;99.90
50586;DHT22;36542;51.700;8.846;2023-03-07T09:12:41;1.40;99.90
50586;DHT22;36542;51.700;8.846;2023-03-07T09:15:07;1.40;99.90
50586;DHT22;36542;51.700;8.846;2023-03-07T09:17:33;1.20;99.90
50586;DHT22;36542;51.700;8.846;2023-03-07T09:19:58;1.20;99.90
50586;DHT22;36542;51.700;8.846;2023-03-07T09:22:26;1.10;99.90
50586;DHT22;36542;51.700;8.846;2023-03-07T09:24:51;1.10;99.90
50586;DHT22;36542;51.700;8.846;2023-03-07T09:27:17;1.10;99.90
50586;DHT22;36542;51.700;8.846;2023-03-07T09:29:43;1.10;99.90
50586;DHT22;36542;51.700;8.846;2023-03-07T09:32:08;1.10;99.90
50586;DHT22;36542;51.700;8.846;2023-03-07T09:34:34;1.00;99.90
50586;DHT22;36542;51.700;8.846;2023-03-07T09:36:59;1.10;99.90
50586;DHT22;36542;51.700;8.846;2023-03-07T09:39:25;1.00;99.90
50586;DHT22;36542;51.700;8.846;2023-03-07T09:42:01;1.10;99.90
50586;DHT22;36542;51.700;8.846;2023-03-07T09:47:23;1.20;99.90
50586;DHT22;36542;51.700;8.846;2023-03-07T09:49:52;1.20;99.90
50586;DHT22;36542;51.700;8.846;2023-03-07T09:52:24;1.10;99.90
50586;DHT22;36542;51.700;8.846;2023-03-07T09:55:00;1.10;99.90
50586;DHT22;36542;51.700;8.846;2023-03-07T09:57:33;1.20;99.90
50586;DHT22;36542;51.700;8.846;2023-03-07T10:05:12;1.20;99.90
50586;DHT22;36542;51.700;8.846;2023-03-07T10:07:40;1.30;99.90
50586;DHT22;36542;51.700;8.846;2023-03-07T10:10:13;1.40;99.90
50586;DHT22;36542;51.700;8.846;2023-03-07T10:13:17;1.40;99.90
50586;DHT22;36542;51.700;8.846;2023-03-07T10:16:01;1.40;99.90
50586;DHT22;36542;51.700;8.846;2023-03-07T10:21:22;1.50;99.90
50586;DHT22;36542;51.700;8.846;2023-03-07T10:26:32;1.50;99.90
50586;DHT22;36542;51.700;8.846;2023-03-07T10:29:09;1.50;99.90
50586;DHT22;36542;51.700;8.846;2023-03-07T10:31:39;1.70;99.90
50586;DHT22;36542;51.700;8.846;2023-03-07T10:34:28;1.80;99.90
50586;DHT22;36542;51.700;8.846;2023-03-07T10:37:00;1.70;99.90
50586;DHT22;36542;51.700;8.846;2023-03-07T10:42:02;1.90;99.90
50586;DHT22;36542;51.700;8.846;2023-03-07T10:44:31;1.80;99.90
50586;DHT22;36542;51.700;8.846;2023-03-07T10:46:58;1.90;99.90
50586;DHT22;36542;51.700;8.846;2023-03-07T10:49:30;1.90;99.90
50586;DHT22;36542;51.700;8.846;2023-03-07T10:57:40;1.90;99.90
50586;DHT22;36542;51.700;8.846;2023-03-07T11:00:13;1.90;99.90
50586;DHT22;36542;51.700;8.846;2023-03-07T11:02:42;2.00;99.90
50586;DHT22;36542;51.700;8.846;2023-03-07T11:05:30;2.10;99.90
50586;DHT22;36542;51.700;8.846;2023-03-07T11:07:57;2.00;99.90
50586;DHT22;36542;51.700;8.846;2023-03-07T11:10:33;2.10;99.90
50586;DHT22;36542;51.700;8.846;2023-03-07T11:13:06;2.20;99.90
50586;DHT22;36542;51.700;8.846;2023-03-07T11:15:32;2.20;99.90
50586;DHT22;36542;51.700;8.846;2023-03-07T11:17:58;2.20;99.90
50586;DHT22;36542;51.700;8.846;2023-03-07T11:20:28;2.20;99.90
50586;DHT22;36542;51.700;8.846;2023-03-07T11:25:43;2.30;99.90
50586;DHT22;36542;51.700;8.846;2023-03-07T11:28:30;2.30;99.90
50586;DHT22;36542;51.700;8.846;2023-03-07T11:31:14;2.40;99.90
50586;DHT22;36542;51.700;8.846;2023-03-07T11:33:59;2.30;99.90
50586;DHT22;36542;51.700;8.846;2023-03-07T11:36:30;2.40;99.90
50586;DHT22;36542;51.700;8.846;2023-03-07T11:39:00;2.50;99.90
50586;DHT22;36542;51.700;8.846;2023-03-07T11:41:39;2.40;99.90
50586;DHT22;36542;51.700;8.846;2023-03-07T11:47:22;2.40;99.90
50586;DHT22;36542;51.700;8.846;2023-03-07T11:50:04;2.30;99.90
50586;DHT22;36542;51.700;8.846;2023-03-07T11:52:55;2.30;99.90
50586;DHT22;36542;51.700;8.846;2023-03-07T11:55:35;2.30;99.90
50586;DHT22;36542;51.700;8.846;2023-03-07T12:01:01;2.10;99.90
50586;DHT22;36542;51.700;8.846;2023-03-07T12:09:27;2.00;99.90
50586;DHT22;36542;51.700;8.846;2023-03-07T12:23:23;2.10;99.90
50586;DHT22;36542;51.700;8.846;2023-03-07T12:25:56;2.00;99.90
50586;DHT22;36542;51.700;8.846;2023-03-07T12:28:31;1.90;99.90
50586;DHT22;36542;51.700;8.846;2023-03-07T12:31:07;1.80;99.90
50586;DHT22;36542;51.700;8.846;2023-03-07T12:36:15;1.90;99.90
50586;DHT22;36542;51.700;8.846;2023-03-07T12:39:34;1.80;99.90
50586;DHT22;36542;51.700;8.846;2023-03-07T12:41:53;1.80;99.90
50586;DHT22;36542;51.700;8.846;2023-03-07T12:44:39;1.80;99.90
50586;DHT22;36542;51.700;8.846;2023-03-07T12:47:19;1.70;99.90
50586;DHT22;36542;51.700;8.846;2023-03-07T12:50:02;1.80;99.90
50586;DHT22;36542;51.700;8.846;2023-03-07T12:52:47;2.00;99.90
50586;DHT22;36542;51.700;8.846;2023-03-07T12:55:37;2.00;99.90
50586;DHT22;36542;51.700;8.846;2023-03-07T13:00:57;2.10;99.90
50586;DHT22;36542;51.700;8.846;2023-03-07T13:03:38;2.00;99.90
50586;DHT22;36542;51.700;8.846;2023-03-07T13:06:07;2.00;99.90
50586;DHT22;36542;51.700;8.846;2023-03-07T13:08:36;2.10;99.90
50586;DHT22;36542;51.700;8.846;2023-03-07T13:11:04;2.10;99.90
50586;DHT22;36542;51.700;8.846;2023-03-07T13:16:12;2.30;99.90
50586;DHT22;36542;51.700;8.846;2023-03-07T13:22:00;2.20;99.90
50586;DHT22;36542;51.700;8.846;2023-03-07T13:24:39;2.10;99.90
50586;DHT22;36542;51.700;8.846;2023-03-07T13:27:25;2.20;99.90
50586;DHT22;36542;51.700;8.846;2023-03-07T14:01:35;2.20;99.90
50586;DHT22;36542;51.700;8.846;2023-03-07T14:04:19;2.10;99.90
50586;DHT22;36542;51.700;8.846;2023-03-07T14:06:54;2.10;99.90
50586;DHT22;36542;51.700;8.846;2023-03-07T14:09:25;2.10;99.90
50586;DHT22;36542;51.700;8.846;2023-03-07T14:12:00;2.10;99.90
50586;DHT22;36542;51.700;8.846;2023-03-07T14:23:34;1.90;99.90
50586;DHT22;36542;51.700;8.846;2023-03-07T14:26:15;1.90;99.90
50586;DHT22;36542;51.700;8.846;2023-03-07T14:31:39;1.90;99.90
50586;DHT22;36542;51.700;8.846;2023-03-07T14:36:51;2.00;99.90
50586;DHT22;36542;51.700;8.846;2023-03-07T14:39:18;2.10;99.90
50586;DHT22;36542;51.700;8.846;2023-03-07T14:44:55;2.00;99.90
50586;DHT22;36542;51.700;8.846;2023-03-07T14:50:26;2.00;99.90
50586;DHT22;36542;51.700;8.846;2023-03-07T14:53:02;2.00;99.90
50586;DHT22;36542;51.700;8.846;2023-03-07T14:55:38;1.90;99.90
50586;DHT22;36542;51.700;8.846;2023-03-07T14:58:04;1.90;99.90
50586;DHT22;36542;51.700;8.846;2023-03-07T15:00:30;2.00;99.90
50586;DHT22;36542;51.700;8.846;2023-03-07T15:03:02;2.00;99.90
50586;DHT22;36542;51.700;8.846;2023-03-07T15:05:42;2.20;99.90
50586;DHT22;36542;51.700;8.846;2023-03-07T15:08:24;2.30;99.90
50586;DHT22;36542;51.700;8.846;2023-03-07T15:11:10;2.20;99.90
50586;DHT22;36542;51.700;8.846;2023-03-07T15:13:52;2.20;99.90
50586;DHT22;36542;51.700;8.846;2023-03-07T15:16:25;2.20;99.90
50586;DHT22;36542;51.700;8.846;2023-03-07T15:19:19;2.00;99.90
50586;DHT22;36542;51.700;8.846;2023-03-07T15:21:53;1.80;99.90
50586;DHT22;36542;51.700;8.846;2023-03-07T15:24:28;1.90;99.90
50586;DHT22;36542;51.700;8.846;2023-03-07T15:26:55;1.80;99.90
50586;DHT22;36542;51.700;8.846;2023-03-07T15:29:22;1.80;99.90
50586;DHT22;36542;51.700;8.846;2023-03-07T15:32:00;1.80;99.90
50586;DHT22;36542;51.700;8.846;2023-03-07T15:34:30;1.80;99.90
50586;DHT22;36542;51.700;8.846;2023-03-07T15:37:20;1.70;99.90
50586;DHT22;36542;51.700;8.846;2023-03-07T15:42:26;1.70;99.90
50586;DHT22;36542;51.700;8.846;2023-03-07T15:44:58;1.60;99.90
50586;DHT22;36542;51.700;8.846;2023-03-07T15:47:24;1.60;99.90
50586;DHT22;36542;51.700;8.846;2023-03-07T15:49:56;1.50;99.90
50586;DHT22;36542;51.700;8.846;2023-03-07T15:52:34;1.50;99.90
50586;DHT22;36542;51.700;8.846;2023-03-07T15:55:03;1.50;99.90
50586;DHT22;36542;51.700;8.846;2023-03-07T16:00:20;1.40;99.90
50586;DHT22;36542;51.700;8.846;2023-03-07T16:02:49;1.40;99.90
50586;DHT22;36542;51.700;8.846;2023-03-07T16:07:50;1.30;99.90
50586;DHT22;36542;51.700;8.846;2023-03-07T16:10:16;1.20;99.90
50586;DHT22;36542;51.700;8.846;2023-03-07T16:12:43;1.20;99.90
50586;DHT22;36542;51.700;8.846;2023-03-07T16:15:19;1.10;99.90
50586;DHT22;36542;51.700;8.846;2023-03-07T16:17:46;1.10;99.90
50586;DHT22;36542;51.700;8.846;2023-03-07T16:20:18;1.10;99.90
50586;DHT22;36542;51.700;8.846;2023-03-07T16:22:44;1.00;99.90
50586;DHT22;36542;51.700;8.846;2023-03-07T16:25:12;1.00;99.90
50586;DHT22;36542;51.700;8.846;2023-03-07T16:27:38;1.00;99.90
50586;DHT22;36542;51.700;8.846;2023-03-07T16:30:16;1.00;99.90
50586;DHT22;36542;51.700;8.846;2023-03-07T16:32:42;0.90;99.90
50586;DHT22;36542;51.700;8.846;2023-03-07T16:35:19;0.90;99.90
50586;DHT22;36542;51.700;8.846;2023-03-07T16:37:45;0.90;99.90
50586;DHT22;36542;51.700;8.846;2023-03-07T16:40:12;0.80;99.90
50586;DHT22;36542;51.700;8.846;2023-03-07T16:42:45;0.80;99.90
50586;DHT22;36542;51.700;8.846;2023-03-07T16:45:25;0.80;99.90
50586;DHT22;36542;51.700;8.846;2023-03-07T16:47:53;0.80;99.90
50586;DHT22;36542;51.700;8.846;2023-03-07T16:50:21;0.80;99.90
50586;DHT22;36542;51.700;8.846;2023-03-07T16:52:47;0.70;99.90
50586;DHT22;36542;51.700;8.846;2023-03-07T16:55:14;0.70;99.90
50586;DHT22;36542;51.700;8.846;2023-03-07T16:57:44;0.70;99.90
50586;DHT22;36542;51.700;8.846;2023-03-07T17:00:15;0.70;99.90
50586;DHT22;36542;51.700;8.846;2023-03-07T17:02:41;0.70;99.90
50586;DHT22;36542;51.700;8.846;2023-03-07T17:05:15;0.70;99.90
50586;DHT22;36542;51.700;8.846;2023-03-07T17:07:41;0.70;99.90
50586;DHT22;36542;51.700;8.846;2023-03-07T17:10:07;0.70;99.90
50586;DHT22;36542;51.700;8.846;2023-03-07T17:12:33;0.60;99.90
50586;DHT22;36542;51.700;8.846;2023-03-07T17:14:58;0.70;99.90
50586;DHT22;36542;51.700;8.846;2023-03-07T17:17:29;0.70;99.90
50586;DHT22;36542;51.700;8.846;2023-03-07T17:19:57;0.70;99.90
50586;DHT22;36542;51.700;8.846;2023-03-07T17:22:24;0.60;99.90
50586;DHT22;36542;51.700;8.846;2023-03-07T17:24:49;0.70;99.90
50586;DHT22;36542;51.700;8.846;2023-03-07T17:27:15;0.70;99.90
50586;DHT22;36542;51.700;8.846;2023-03-07T17:29:47;0.70;99.90
50586;DHT22;36542;51.700;8.846;2023-03-07T17:32:14;0.70;99.90
50586;DHT22;36542;51.700;8.846;2023-03-07T17:34:40;0.60;99.90
50586;DHT22;36542;51.700;8.846;2023-03-07T17:37:06;0.60;99.90
50586;DHT22;36542;51.700;8.846;2023-03-07T17:39:32;0.50;99.90
50586;DHT22;36542;51.700;8.846;2023-03-07T17:41:59;0.40;99.90
50586;DHT22;36542;51.700;8.846;2023-03-07T17:44:25;0.30;99.90
50586;DHT22;36542;51.700;8.846;2023-03-07T17:46:51;0.20;99.90
50586;DHT22;36542;51.700;8.846;2023-03-07T17:49:17;0.20;99.90
50586;DHT22;36542;51.700;8.846;2023-03-07T17:51:42;0.20;99.90
50586;DHT22;36542;51.700;8.846;2023-03-07T17:54:08;0.10;99.90
50586;DHT22;36542;51.700;8.846;2023-03-07T17:56:35;0.00;99.90
50586;DHT22;36542;51.700;8.846;2023-03-07T17:59:01;0.00;99.90
50586;DHT22;36542;51.700;8.846;2023-03-07T18:01:28;0.00;99.90